Time;durP1;ratioP1;P1;durP2;ratioP2;P2;SDS_P1;SDS_P2;PMS_P1;PMS_P2;Temp;Humidity;BMP_temperature;BMP_pressure;BME280_temperature;BME280_humidity;BME280_pressure;Samples;Min_cycle;Max_cycle;Signal;HPM_P1;HPM_P2
2022/11/11 00:02:20;;;;;;;;;;;17.20;50.80;;;;;;8364496;28;19921;-43
2022/11/11 00:06:21;;;;;;;;;;;17.30;50.90;;;;;;8364513;28;20012;-42
2022/11/11 00:10:21;;;;;;;;;;;17.20;50.70;;;;;;8364084;28;19925;-42
2022/11/11 00:14:21;;;;;;;;;;;17.20;50.80;;;;;;8363740;28;19916;-43
2022/11/11 00:27:01;;;;;;;;;;;17.20;50.80;;;;;;8365538;28;20293;-43
2022/11/11 00:31:06;;;;;;;;;;;17.20;50.70;;;;;;8363007;28;19925;-43
2022/11/11 00:39:25;;;;;;;;;;;17.20;50.70;;;;;;8364825;28;20016;-43
2022/11/11 00:43:26;;;;;;;;;;;17.20;50.70;;;;;;8363428;28;19913;-42
2022/11/11 00:51:45;;;;;;;;;;;17.20;50.70;;;;;;8363810;28;19959;-42
2022/11/11 00:55:46;;;;;;;;;;;17.10;50.70;;;;;;8363424;28;19917;-43
2022/11/11 00:59:46;;;;;;;;;;;17.10;50.70;;;;;;8363270;28;19924;-42
2022/11/11 01:03:47;;;;;;;;;;;17.10;50.70;;;;;;8362720;28;19928;-42
2022/11/11 01:07:49;;;;;;;;;;;17.10;50.60;;;;;;8362394;28;19917;-42
2022/11/11 01:11:49;;;;;;;;;;;17.10;50.70;;;;;;8344666;28;20298;-42
2022/11/11 01:15:51;;;;;;;;;;;17.10;50.60;;;;;;8336070;28;19996;-42
2022/11/11 01:19:51;;;;;;;;;;;17.10;50.60;;;;;;8336425;28;19943;-41
2022/11/11 01:23:52;;;;;;;;;;;17.10;50.60;;;;;;8336771;28;20286;-42
2022/11/11 01:27:53;;;;;;;;;;;17.10;50.60;;;;;;8335646;28;20019;-42
2022/11/11 01:31:53;;;;;;;;;;;17.10;50.60;;;;;;8336231;28;19917;-42
2022/11/11 01:35:53;;;;;;;;;;;17.00;50.60;;;;;;8336165;28;19924;-42
2022/11/11 01:39:54;;;;;;;;;;;17.10;50.60;;;;;;8335286;28;19978;-42
2022/11/11 01:43:54;;;;;;;;;;;17.10;50.60;;;;;;8335844;28;19913;-42
2022/11/11 01:52:40;;;;;;;;;;;17.00;50.60;;;;;;8335199;28;19966;-42
2022/11/11 01:56:42;;;;;;;;;;;17.00;50.60;;;;;;8335222;28;19924;-42
2022/11/11 02:00:42;;;;;;;;;;;17.00;50.50;;;;;;8334799;28;20403;-42
2022/11/11 02:09:03;;;;;;;;;;;17.00;50.50;;;;;;8364486;28;19979;-42
2022/11/11 02:17:25;;;;;;;;;;;17.00;50.50;;;;;;8367874;28;20023;-42
2022/11/11 02:21:34;;;;;;;;;;;17.00;50.50;;;;;;8366812;28;19917;-42
2022/11/11 02:25:36;;;;;;;;;;;17.00;50.50;;;;;;8367628;28;19923;-42
2022/11/11 02:29:37;;;;;;;;;;;16.90;50.40;;;;;;8367180;28;19967;-42
2022/11/11 02:33:37;;;;;;;;;;;17.00;50.40;;;;;;8367153;28;20025;-42
2022/11/11 02:37:38;;;;;;;;;;;16.90;50.40;;;;;;8366839;28;19920;-42
2022/11/11 02:41:55;;;;;;;;;;;16.90;50.40;;;;;;8366869;28;20369;-42
2022/11/11 02:45:56;;;;;;;;;;;16.90;50.40;;;;;;8366372;28;19923;-42
2022/11/11 02:49:56;;;;;;;;;;;16.90;50.40;;;;;;8366792;28;20394;-42
2022/11/11 02:54:02;;;;;;;;;;;16.90;50.40;;;;;;8366707;28;19935;-42
2022/11/11 02:58:02;;;;;;;;;;;16.90;50.40;;;;;;8365949;28;19955;-42
2022/11/11 03:02:03;;;;;;;;;;;16.90;50.30;;;;;;8366337;28;19916;-42
2022/11/11 03:06:03;;;;;;;;;;;16.90;50.40;;;;;;8366824;28;19921;-42
2022/11/11 03:10:04;;;;;;;;;;;16.90;50.40;;;;;;8365490;28;19928;-42
2022/11/11 03:14:05;;;;;;;;;;;16.80;50.30;;;;;;8366192;28;19975;-42
2022/11/11 03:18:05;;;;;;;;;;;16.90;50.30;;;;;;8365875;28;19978;-42
2022/11/11 03:22:05;;;;;;;;;;;16.80;50.20;;;;;;8365220;28;19948;-42
2022/11/11 03:26:07;;;;;;;;;;;16.80;50.30;;;;;;8365576;28;19923;-42
2022/11/11 03:30:08;;;;;;;;;;;16.80;50.30;;;;;;8364906;28;19959;-41
2022/11/11 03:34:18;;;;;;;;;;;16.80;50.20;;;;;;8364761;28;19916;-42
2022/11/11 03:38:24;;;;;;;;;;;16.80;50.30;;;;;;8365476;28;19940;-42
2022/11/11 03:42:25;;;;;;;;;;;16.80;50.30;;;;;;8364663;28;19924;-42
2022/11/11 03:46:25;;;;;;;;;;;16.80;50.20;;;;;;8365172;28;20012;-43
2022/11/11 03:50:25;;;;;;;;;;;16.80;50.20;;;;;;8364759;28;19940;-42
2022/11/11 03:54:26;;;;;;;;;;;16.80;50.20;;;;;;8364643;28;19920;-43
2022/11/11 03:58:26;;;;;;;;;;;16.80;50.20;;;;;;8364834;28;19956;-43
2022/11/11 04:11:07;;;;;;;;;;;16.80;50.30;;;;;;8368687;28;19935;-43
2022/11/11 04:23:45;;;;;;;;;;;16.80;50.20;;;;;;8363987;28;20293;-43
2022/11/11 04:29:27;;;;;;;;;;;16.80;50.30;;;;;;8363371;28;19917;-43
2022/11/11 04:36:27;;;;;;;;;;;16.80;50.20;;;;;;8363202;28;19924;-43
2022/11/11 04:49:06;;;;;;;;;;;16.70;50.20;;;;;;8362886;28;19963;-43
2022/11/11 04:53:09;;;;;;;;;;;16.70;50.20;;;;;;8363584;28;19917;-43
2022/11/11 04:57:10;;;;;;;;;;;16.70;50.20;;;;;;8362920;28;20328;-43
2022/11/11 05:03:14;;;;;;;;;;;16.80;50.30;;;;;;8363292;28;19917;-44
2022/11/11 05:08:54;;;;;;;;;;;16.80;50.20;;;;;;8363316;28;20262;-43
2022/11/11 05:09:54;;;;;;;;;;;16.70;50.20;;;;;;8329975;28;20345;-44
2022/11/11 05:22:38;;;;;;;;;;;16.70;50.20;;;;;;8363023;28;20357;-43
2022/11/11 05:26:38;;;;;;;;;;;16.70;50.20;;;;;;8362699;28;20373;-44
2022/11/11 05:30:40;;;;;;;;;;;16.70;50.20;;;;;;8361908;28;19921;-43
2022/11/11 05:34:40;;;;;;;;;;;16.70;50.20;;;;;;8362234;28;19917;-43
2022/11/11 05:38:41;;;;;;;;;;;16.70;50.20;;;;;;8362343;28;19921;-43
2022/11/11 05:42:41;;;;;;;;;;;16.70;50.20;;;;;;8361554;28;20369;-44
2022/11/11 05:46:42;;;;;;;;;;;16.70;50.20;;;;;;8362437;28;19920;-43
2022/11/11 05:50:42;;;;;;;;;;;16.70;50.20;;;;;;8362691;28;19982;-44
2022/11/11 05:54:43;;;;;;;;;;;16.70;50.20;;;;;;8361841;28;19916;-44
2022/11/11 05:58:44;;;;;;;;;;;16.70;50.20;;;;;;8367721;28;19923;-43
2022/11/11 06:02:44;;;;;;;;;;;16.70;50.20;;;;;;8368419;28;20328;-43
2022/11/11 06:06:44;;;;;;;;;;;16.80;50.20;;;;;;8367680;28;19921;-44
2022/11/11 06:10:45;;;;;;;;;;;16.70;50.20;;;;;;8368145;28;19920;-43
2022/11/11 06:14:45;;;;;;;;;;;16.70;50.30;;;;;;8367842;28;19925;-43
2022/11/11 06:18:46;;;;;;;;;;;16.70;50.20;;;;;;8367389;28;20396;-43
2022/11/11 06:22:55;;;;;;;;;;;16.70;50.20;;;;;;8367788;28;20289;-44
2022/11/11 06:26:56;;;;;;;;;;;16.70;50.20;;;;;;8367847;28;19912;-45
2022/11/11 06:30:56;;;;;;;;;;;16.70;50.30;;;;;;8366926;28;20301;-44
2022/11/11 06:34:56;;;;;;;;;;;16.70;50.20;;;;;;8367105;28;20012;-43
2022/11/11 06:38:57;;;;;;;;;;;16.70;50.30;;;;;;8366966;28;19912;-43
2022/11/11 06:42:58;;;;;;;;;;;16.70;50.30;;;;;;8366527;28;20377;-43
2022/11/11 06:46:58;;;;;;;;;;;16.70;50.30;;;;;;8365488;28;20058;-44
2022/11/11 06:51:02;;;;;;;;;;;16.70;50.20;;;;;;8366759;28;19928;-44
2022/11/11 06:55:03;;;;;;;;;;;16.70;50.30;;;;;;8366107;28;19956;-44
2022/11/11 06:59:03;;;;;;;;;;;16.70;50.30;;;;;;8366232;28;19924;-45
2022/11/11 07:03:05;;;;;;;;;;;16.70;50.40;;;;;;8366090;28;19967;-44
2022/11/11 07:07:05;;;;;;;;;;;16.70;50.30;;;;;;8365214;28;19921;-45
2022/11/11 07:11:06;;;;;;;;;;;16.70;50.30;;;;;;8366186;28;19947;-44
2022/11/11 07:15:06;;;;;;;;;;;16.70;50.30;;;;;;8365806;28;19917;-48
2022/11/11 07:19:07;;;;;;;;;;;16.70;50.30;;;;;;8364026;28;20293;-44
2022/11/11 07:23:07;;;;;;;;;;;16.80;50.40;;;;;;8365749;28;19917;-43
2022/11/11 07:27:08;;;;;;;;;;;16.70;50.30;;;;;;8365061;28;19971;-44
2022/11/11 07:31:08;;;;;;;;;;;16.70;50.40;;;;;;8365808;28;19921;-43
2022/11/11 07:35:09;;;;;;;;;;;16.70;50.30;;;;;;8365423;28;19983;-44
2022/11/11 07:39:09;;;;;;;;;;;16.70;50.30;;;;;;8364680;28;19924;-43
2022/11/11 07:43:10;;;;;;;;;;;16.70;50.30;;;;;;8365142;28;19917;-43
2022/11/11 07:47:10;;;;;;;;;;;16.70;50.30;;;;;;8364927;28;19917;-46
2022/11/11 07:51:10;;;;;;;;;;;16.70;50.40;;;;;;8364662;28;19975;-44
2022/11/11 07:55:11;;;;;;;;;;;16.70;50.40;;;;;;8364781;28;20008;-44
2022/11/11 07:59:11;;;;;;;;;;;16.70;50.30;;;;;;8364757;28;20288;-44
2022/11/11 08:03:12;;;;;;;;;;;16.70;50.30;;;;;;8364130;28;19927;-44
2022/11/11 08:07:12;;;;;;;;;;;16.70;50.40;;;;;;8364564;28;20011;-44
2022/11/11 08:11:13;;;;;;;;;;;16.70;50.40;;;;;;8363483;28;19921;-44
2022/11/11 08:15:14;;;;;;;;;;;16.70;50.30;;;;;;8363713;28;19923;-45
2022/11/11 08:19:14;;;;;;;;;;;16.70;50.40;;;;;;8363604;28;19923;-44
2022/11/11 08:23:20;;;;;;;;;;;16.70;50.40;;;;;;8362571;28;19917;-45
2022/11/11 08:27:21;;;;;;;;;;;16.70;50.40;;;;;;8363384;28;19961;-44
2022/11/11 08:31:21;;;;;;;;;;;16.80;50.40;;;;;;8363920;28;20281;-44
2022/11/11 08:35:22;;;;;;;;;;;16.70;50.30;;;;;;8363627;28;19917;-43
2022/11/11 08:39:22;;;;;;;;;;;16.80;50.50;;;;;;8363818;28;20553;-43
2022/11/11 08:43:25;;;;;;;;;;;16.70;50.40;;;;;;8363571;28;19971;-45
2022/11/11 08:47:25;;;;;;;;;;;16.70;50.40;;;;;;8363464;28;19940;-44
2022/11/11 08:51:25;;;;;;;;;;;16.80;50.50;;;;;;8363039;28;19925;-44
2022/11/11 08:55:26;;;;;;;;;;;16.80;50.50;;;;;;8363374;28;20019;-44
2022/11/11 08:59:26;;;;;;;;;;;16.80;50.50;;;;;;8363140;28;19920;-43
2022/11/11 09:03:27;;;;;;;;;;;16.80;50.50;;;;;;8362775;28;20366;-44
2022/11/11 09:07:27;;;;;;;;;;;16.70;50.40;;;;;;8363812;28;19917;-43
2022/11/11 09:11:35;;;;;;;;;;;16.70;50.50;;;;;;8363218;28;19920;-43
2022/11/11 09:15:35;;;;;;;;;;;16.80;50.50;;;;;;8362536;28;19991;-43
2022/11/11 09:19:35;;;;;;;;;;;16.80;50.50;;;;;;8362925;28;19923;-44
2022/11/11 09:23:36;;;;;;;;;;;16.80;50.50;;;;;;8362902;28;19924;-44
2022/11/11 09:27:37;;;;;;;;;;;16.80;50.50;;;;;;8362472;28;20345;-44
2022/11/11 09:31:38;;;;;;;;;;;16.80;50.50;;;;;;8365455;28;19927;-43
2022/11/11 09:35:38;;;;;;;;;;;16.80;50.50;;;;;;8369309;28;19916;-45
2022/11/11 09:39:38;;;;;;;;;;;16.80;50.50;;;;;;8368593;28;20361;-45
2022/11/11 09:43:44;;;;;;;;;;;16.80;50.50;;;;;;8369019;28;19995;-44
2022/11/11 09:47:51;;;;;;;;;;;16.80;50.50;;;;;;8368764;28;20297;-45
2022/11/11 09:52:07;;;;;;;;;;;16.80;50.60;;;;;;8368305;28;20012;-44
2022/11/11 09:56:09;;;;;;;;;;;16.80;50.50;;;;;;8368204;28;19952;-44
2022/11/11 10:00:22;;;;;;;;;;;16.80;50.40;;;;;;8367869;28;19963;-43
2022/11/11 10:04:29;;;;;;;;;;;16.80;50.50;;;;;;8368253;28;19921;-44
2022/11/11 10:08:34;;;;;;;;;;;16.80;50.50;;;;;;8367877;28;19991;-45
2022/11/11 10:12:38;;;;;;;;;;;16.80;51.00;;;;;;8366300;28;20460;-44
2022/11/11 10:16:47;;;;;;;;;;;16.80;50.50;;;;;;8367644;28;19917;-44
2022/11/11 10:20:52;;;;;;;;;;;16.80;50.50;;;;;;8366455;28;19916;-46
2022/11/11 10:25:06;;;;;;;;;;;16.80;50.50;;;;;;8366014;28;20472;-44
2022/11/11 10:29:27;;;;;;;;;;;16.80;50.50;;;;;;8366152;28;19929;-43
2022/11/11 10:33:39;;;;;;;;;;;16.90;50.60;;;;;;8365235;28;19931;-44
2022/11/11 10:37:40;;;;;;;;;;;16.80;50.50;;;;;;8366251;28;20420;-45
2022/11/11 10:41:41;;;;;;;;;;;16.90;50.60;;;;;;8365893;28;19923;-43
2022/11/11 10:45:45;;;;;;;;;;;16.90;50.60;;;;;;8366523;28;19920;-45
2022/11/11 10:49:58;;;;;;;;;;;16.90;50.60;;;;;;8366533;28;19944;-44
2022/11/11 10:54:08;;;;;;;;;;;16.80;50.50;;;;;;8366529;28;19924;-44
2022/11/11 10:58:29;;;;;;;;;;;16.90;50.60;;;;;;8366286;28;20354;-44
2022/11/11 11:02:33;;;;;;;;;;;16.90;50.60;;;;;;8351421;28;19975;-44
2022/11/11 11:06:37;;;;;;;;;;;16.90;50.60;;;;;;8362829;28;20350;-44
2022/11/11 11:10:40;;;;;;;;;;;16.90;50.60;;;;;;8366171;28;19925;-43
2022/11/11 11:14:47;;;;;;;;;;;16.90;50.60;;;;;;8366730;28;19917;-43
2022/11/11 11:19:06;;;;;;;;;;;16.90;50.60;;;;;;8365298;28;19924;-43
2022/11/11 11:23:07;;;;;;;;;;;16.90;50.60;;;;;;8365732;28;19971;-43
2022/11/11 11:27:07;;;;;;;;;;;16.90;50.60;;;;;;8365747;28;19931;-43
2022/11/11 11:31:09;;;;;;;;;;;16.90;50.60;;;;;;8364722;28;19963;-44
2022/11/11 11:35:27;;;;;;;;;;;16.90;50.60;;;;;;8364717;28;20430;-42
2022/11/11 11:39:35;;;;;;;;;;;16.90;50.50;;;;;;8363725;28;20838;-44
2022/11/11 11:43:37;;;;;;;;;;;16.90;50.60;;;;;;8363378;28;19928;-43
2022/11/11 11:47:41;;;;;;;;;;;16.90;50.60;;;;;;8363705;28;19996;-43
2022/11/11 11:51:53;;;;;;;;;;;17.00;50.60;;;;;;8362968;28;19925;-43
2022/11/11 11:55:57;;;;;;;;;;;17.00;50.60;;;;;;8363699;28;19975;-43
2022/11/11 12:00:02;;;;;;;;;;;17.00;50.60;;;;;;8364493;28;19913;-43
2022/11/11 12:04:03;;;;;;;;;;;17.00;50.60;;;;;;8363963;28;19920;-43
2022/11/11 12:08:18;;;;;;;;;;;17.00;50.60;;;;;;8364491;28;20305;-42
2022/11/11 12:12:37;;;;;;;;;;;17.00;51.10;;;;;;8363810;28;20400;-44
2022/11/11 12:17:07;;;;;;;;;;;17.00;50.60;;;;;;8364071;28;19917;-44
2022/11/11 12:21:13;;;;;;;;;;;17.00;50.60;;;;;;8344534;28;19917;-43
2022/11/11 12:25:28;;;;;;;;;;;17.00;50.60;;;;;;8364079;28;20388;-44
2022/11/11 12:29:28;;;;;;;;;;;17.00;50.90;;;;;;8364017;28;19925;-42
2022/11/11 12:33:49;;;;;;;;;;;17.00;50.60;;;;;;8363633;28;19974;-43
2022/11/11 12:37:56;;;;;;;;;;;17.00;50.60;;;;;;8364086;28;19955;-43
2022/11/11 12:41:56;;;;;;;;;;;17.00;50.60;;;;;;8363608;28;19918;-43
2022/11/11 12:46:04;;;;;;;;;;;17.00;50.70;;;;;;8362966;28;20293;-43
2022/11/11 12:50:14;;;;;;;;;;;17.00;50.70;;;;;;8363553;28;20003;-43
2022/11/11 12:54:23;;;;;;;;;;;17.00;50.70;;;;;;8362832;28;20285;-43
2022/11/11 12:58:46;;;;;;;;;;;17.00;50.60;;;;;;8363528;28;20254;-43
2022/11/11 13:03:05;;;;;;;;;;;17.10;50.70;;;;;;8363452;28;20011;-44
2022/11/11 13:07:06;;;;;;;;;;;17.00;50.70;;;;;;8366535;28;19971;-43
2022/11/11 13:11:25;;;;;;;;;;;17.10;50.70;;;;;;8369867;28;19925;-43
2022/11/11 13:15:26;;;;;;;;;;;17.10;50.70;;;;;;8369581;28;20374;-43
2022/11/11 13:19:29;;;;;;;;;;;17.10;50.60;;;;;;8369905;28;19917;-44
2022/11/11 13:23:30;;;;;;;;;;;17.10;50.60;;;;;;8369874;28;20499;-44
2022/11/11 13:27:38;;;;;;;;;;;17.10;50.70;;;;;;8368894;28;19917;-46
2022/11/11 13:31:40;;;;;;;;;;;17.10;50.70;;;;;;8369253;28;19971;-44
2022/11/11 13:35:52;;;;;;;;;;;17.10;50.70;;;;;;8369383;28;19917;-45
2022/11/11 13:39:55;;;;;;;;;;;17.10;50.70;;;;;;8367279;28;19917;-43
2022/11/11 13:44:01;;;;;;;;;;;17.10;50.70;;;;;;8369030;28;19913;-44
2022/11/11 13:48:02;;;;;;;;;;;17.10;50.70;;;;;;8368905;28;19948;-44
2022/11/11 13:52:18;;;;;;;;;;;17.10;50.70;;;;;;8368087;28;19932;-44
2022/11/11 13:56:34;;;;;;;;;;;17.10;50.60;;;;;;8368386;28;20027;-45
2022/11/11 14:00:36;;;;;;;;;;;17.10;50.60;;;;;;8367890;28;19970;-45
2022/11/11 14:04:55;;;;;;;;;;;17.10;50.60;;;;;;8339682;28;20062;-44
2022/11/11 14:08:56;;;;;;;;;;;17.10;50.70;;;;;;8361048;28;20423;-45
2022/11/11 14:13:16;;;;;;;;;;;17.10;50.70;;;;;;8354502;28;19970;-45
2022/11/11 14:17:17;;;;;;;;;;;17.10;50.70;;;;;;8357373;28;19917;-45
2022/11/11 14:21:36;;;;;;;;;;;17.10;50.70;;;;;;8366371;28;19986;-44
2022/11/11 14:25:36;;;;;;;;;;;17.10;50.70;;;;;;8357752;28;20351;-46
2022/11/11 14:30:06;;;;;;;;;;;17.20;50.70;;;;;;8384761;28;19920;-44
2022/11/11 14:34:16;;;;;;;;;;;17.10;50.60;;;;;;8356170;28;19917;-43
2022/11/11 14:38:27;;;;;;;;;;;17.10;50.70;;;;;;8362012;28;19939;-44
2022/11/11 14:42:34;;;;;;;;;;;17.20;50.80;;;;;;8356644;28;20055;-44
2022/11/11 14:46:54;;;;;;;;;;;17.20;50.70;;;;;;8360560;28;19944;-44
2022/11/11 14:50:54;;;;;;;;;;;17.20;50.70;;;;;;8356055;28;20305;-45
2022/11/11 14:55:02;;;;;;;;;;;17.10;50.70;;;;;;8357805;28;19917;-45
2022/11/11 14:59:06;;;;;;;;;;;17.10;50.70;;;;;;8360084;28;20604;-45
2022/11/11 15:03:24;;;;;;;;;;;17.10;50.70;;;;;;8358644;28;19917;-45
2022/11/11 15:07:51;;;;;;;;;;;17.10;50.70;;;;;;8357486;28;19921;-44
2022/11/11 15:12:10;;;;;;;;;;;17.10;50.70;;;;;;8331557;28;19932;-44
2022/11/11 15:16:10;;;;;;;;;;;17.10;50.70;;;;;;8346648;28;19927;-44
2022/11/11 15:20:30;;;;;;;;;;;17.10;50.70;;;;;;8361110;28;19917;-45
2022/11/11 15:24:39;;;;;;;;;;;17.10;50.80;;;;;;8355140;28;20257;-44
2022/11/11 15:28:48;;;;;;;;;;;17.10;50.80;;;;;;8360466;28;19999;-44
2022/11/11 15:32:56;;;;;;;;;;;17.10;50.80;;;;;;8357838;28;19968;-44
2022/11/11 15:36:58;;;;;;;;;;;17.20;50.80;;;;;;8359054;28;20050;-44
2022/11/11 15:40:59;;;;;;;;;;;17.10;50.80;;;;;;8355935;28;19956;-44
2022/11/11 15:45:01;;;;;;;;;;;17.10;50.80;;;;;;8355035;28;20369;-44
2022/11/11 15:49:02;;;;;;;;;;;17.10;50.80;;;;;;8361523;28;19924;-43
2022/11/11 15:53:03;;;;;;;;;;;17.10;50.80;;;;;;8362517;28;20357;-45
2022/11/11 15:57:21;;;;;;;;;;;17.10;50.80;;;;;;8357827;28;19921;-43
2022/11/11 16:01:24;;;;;;;;;;;17.10;50.80;;;;;;8346625;28;19917;-44
2022/11/11 16:05:25;;;;;;;;;;;17.10;50.90;;;;;;8356524;28;19921;-43
2022/11/11 16:09:28;;;;;;;;;;;17.10;50.90;;;;;;8349775;28;21495;-44
2022/11/11 16:13:45;;;;;;;;;;;17.10;50.80;;;;;;8357078;28;19917;-44
2022/11/11 16:17:45;;;;;;;;;;;17.10;50.90;;;;;;8357184;28;19917;-45
2022/11/11 16:21:56;;;;;;;;;;;17.10;50.90;;;;;;8355920;28;20409;-44
2022/11/11 16:25:57;;;;;;;;;;;17.10;50.90;;;;;;8359466;28;19928;-44
2022/11/11 16:30:15;;;;;;;;;;;17.10;50.90;;;;;;8357344;28;20389;-45
2022/11/11 16:34:41;;;;;;;;;;;17.10;50.90;;;;;;8357711;28;19917;-43
2022/11/11 16:38:42;;;;;;;;;;;17.10;50.90;;;;;;8359335;28;20365;-43
2022/11/11 16:42:43;;;;;;;;;;;17.10;50.90;;;;;;8350528;28;20078;-46
2022/11/11 16:46:43;;;;;;;;;;;17.10;50.90;;;;;;8355390;28;19916;-45
2022/11/11 16:51:10;;;;;;;;;;;17.10;50.90;;;;;;8355852;28;19925;-45
2022/11/11 16:55:24;;;;;;;;;;;17.10;50.90;;;;;;8354029;28;19921;-44
2022/11/11 16:59:46;;;;;;;;;;;17.10;50.90;;;;;;8356348;28;19924;-44
2022/11/11 17:03:57;;;;;;;;;;;17.10;50.90;;;;;;8347342;28;19944;-44
2022/11/11 17:07:58;;;;;;;;;;;17.20;51.00;;;;;;8360692;28;20374;-44
2022/11/11 17:11:58;;;;;;;;;;;17.10;50.90;;;;;;8361894;28;20372;-44
2022/11/11 17:16:03;;;;;;;;;;;17.10;50.90;;;;;;8362613;28;19938;-43
2022/11/11 17:20:13;;;;;;;;;;;17.20;51.00;;;;;;8362927;28;19913;-44
2022/11/11 17:24:14;;;;;;;;;;;17.20;51.00;;;;;;8362424;28;19917;-44
2022/11/11 17:28:14;;;;;;;;;;;17.10;50.90;;;;;;8363059;28;20000;-44
2022/11/11 17:32:15;;;;;;;;;;;17.10;50.90;;;;;;8362680;28;19924;-43
2022/11/11 17:36:15;;;;;;;;;;;17.10;50.90;;;;;;8362195;28;19952;-45
2022/11/11 17:40:16;;;;;;;;;;;17.10;51.00;;;;;;8363068;28;20289;-43
2022/11/11 17:44:16;;;;;;;;;;;17.10;50.90;;;;;;8362479;28;20019;-43
2022/11/11 17:48:17;;;;;;;;;;;17.10;51.00;;;;;;8362464;28;19916;-43
2022/11/11 17:52:17;;;;;;;;;;;17.10;51.00;;;;;;8364558;28;20373;-43
2022/11/11 17:56:18;;;;;;;;;;;17.20;51.00;;;;;;8368520;28;20222;-43
2022/11/11 18:00:19;;;;;;;;;;;17.10;51.00;;;;;;8368250;28;20280;-44
2022/11/11 18:04:19;;;;;;;;;;;17.10;51.00;;;;;;8368468;28;19928;-43
2022/11/11 18:08:20;;;;;;;;;;;17.10;51.00;;;;;;8368164;28;20328;-43
2022/11/11 18:12:20;;;;;;;;;;;17.10;51.00;;;;;;8367594;28;20027;-44
2022/11/11 18:16:21;;;;;;;;;;;17.10;51.00;;;;;;8368215;28;20384;-44
2022/11/11 18:20:21;;;;;;;;;;;17.20;51.00;;;;;;8368026;28;19913;-43
2022/11/11 18:24:21;;;;;;;;;;;17.10;51.00;;;;;;8367230;28;20266;-44
2022/11/11 18:28:22;;;;;;;;;;;17.20;51.00;;;;;;8367605;28;19986;-43
2022/11/11 18:32:22;;;;;;;;;;;17.10;51.00;;;;;;8367293;28;19935;-43
2022/11/11 18:36:23;;;;;;;;;;;17.10;51.50;;;;;;8366921;28;20443;-43
2022/11/11 18:40:23;;;;;;;;;;;17.20;51.00;;;;;;8367449;28;20365;-44
2022/11/11 18:44:24;;;;;;;;;;;17.20;51.00;;;;;;8367048;28;19917;-42
2022/11/11 18:48:24;;;;;;;;;;;17.20;51.00;;;;;;8366649;28;19940;-44
2022/11/11 18:52:25;;;;;;;;;;;17.20;51.00;;;;;;8366830;28;20420;-43
2022/11/11 18:56:26;;;;;;;;;;;17.20;51.00;;;;;;8366693;28;19913;-42
2022/11/11 19:00:26;;;;;;;;;;;17.20;51.00;;;;;;8366440;28;20369;-43
2022/11/11 19:04:27;;;;;;;;;;;17.20;51.00;;;;;;8366615;28;19920;-43
2022/11/11 19:08:29;;;;;;;;;;;17.20;51.00;;;;;;8366463;28;20003;-43
2022/11/11 19:12:29;;;;;;;;;;;17.20;51.00;;;;;;8365774;28;20392;-43
2022/11/11 19:16:31;;;;;;;;;;;17.20;51.00;;;;;;8366186;28;20034;-44
2022/11/11 19:20:31;;;;;;;;;;;17.20;51.00;;;;;;8366083;28;19947;-45
2022/11/11 19:24:32;;;;;;;;;;;17.20;51.00;;;;;;8365612;28;20295;-44
2022/11/11 19:28:32;;;;;;;;;;;17.20;51.00;;;;;;8365655;28;19924;-43
2022/11/11 19:32:33;;;;;;;;;;;17.20;51.00;;;;;;8365746;28;19931;-43
2022/11/11 19:36:35;;;;;;;;;;;17.20;51.10;;;;;;8364981;28;19919;-43
2022/11/11 19:40:36;;;;;;;;;;;17.20;51.00;;;;;;8365774;28;19920;-43
2022/11/11 19:44:36;;;;;;;;;;;17.20;51.00;;;;;;8365650;28;20336;-43
2022/11/11 19:48:37;;;;;;;;;;;17.20;51.00;;;;;;8364610;28;19924;-44
2022/11/11 19:52:37;;;;;;;;;;;17.20;51.00;;;;;;8365053;28;20003;-44
2022/11/11 19:56:38;;;;;;;;;;;17.20;51.00;;;;;;8364703;28;20389;-45
2022/11/11 20:00:38;;;;;;;;;;;17.20;51.00;;;;;;8364472;28;19920;-43
2022/11/11 20:04:39;;;;;;;;;;;17.20;51.00;;;;;;8364723;28;20434;-44
2022/11/11 20:08:39;;;;;;;;;;;17.20;51.00;;;;;;8364364;28;19924;-44
2022/11/11 20:12:41;;;;;;;;;;;17.20;51.00;;;;;;8341624;28;21222;-45
2022/11/11 20:16:42;;;;;;;;;;;17.20;51.00;;;;;;8363434;28;19913;-44
2022/11/11 20:20:42;;;;;;;;;;;17.20;51.00;;;;;;8364024;28;19920;-44
2022/11/11 20:24:43;;;;;;;;;;;17.20;51.00;;;;;;8363599;28;19995;-44
2022/11/11 20:28:43;;;;;;;;;;;17.20;51.00;;;;;;8363746;28;19982;-43
2022/11/11 20:32:44;;;;;;;;;;;17.20;51.00;;;;;;8364025;28;19917;-44
2022/11/11 20:36:44;;;;;;;;;;;17.20;51.00;;;;;;8363503;28;19919;-44
2022/11/11 20:40:45;;;;;;;;;;;17.20;51.00;;;;;;8363631;28;19924;-44
2022/11/11 20:44:45;;;;;;;;;;;17.20;51.00;;;;;;8363535;28;19952;-44
2022/11/11 20:48:47;;;;;;;;;;;17.20;51.00;;;;;;8362975;28;20262;-44
2022/11/11 20:52:48;;;;;;;;;;;17.10;51.00;;;;;;8363516;28;19921;-44
2022/11/11 20:56:49;;;;;;;;;;;17.20;51.00;;;;;;8363669;28;20366;-45
2022/11/11 21:00:50;;;;;;;;;;;17.20;51.00;;;;;;8362752;28;19966;-44
2022/11/11 21:04:50;;;;;;;;;;;17.20;51.00;;;;;;8363393;28;20285;-44
2022/11/11 21:08:51;;;;;;;;;;;17.10;51.00;;;;;;8363862;28;19921;-44
2022/11/11 21:12:53;;;;;;;;;;;17.20;51.50;;;;;;8362674;28;20019;-44
2022/11/11 21:16:53;;;;;;;;;;;17.20;51.00;;;;;;8363191;28;20381;-44
2022/11/11 21:20:54;;;;;;;;;;;17.20;51.00;;;;;;8362969;28;19917;-44
2022/11/11 21:24:54;;;;;;;;;;;17.20;51.00;;;;;;8362565;28;19917;-44
2022/11/11 21:28:55;;;;;;;;;;;17.20;51.00;;;;;;8367505;28;19928;-43
2022/11/11 21:32:56;;;;;;;;;;;17.20;51.00;;;;;;8369321;28;19928;-44
2022/11/11 21:36:56;;;;;;;;;;;17.20;50.90;;;;;;8369060;28;20373;-44
2022/11/11 21:41:06;;;;;;;;;;;17.20;50.90;;;;;;8368968;28;19917;-45
2022/11/11 21:45:07;;;;;;;;;;;17.20;50.90;;;;;;8369058;28;19924;-44
2022/11/11 21:49:07;;;;;;;;;;;17.20;50.90;;;;;;8368213;28;20003;-44
2022/11/11 21:53:08;;;;;;;;;;;17.20;50.90;;;;;;8368993;28;20407;-45
2022/11/11 21:57:08;;;;;;;;;;;17.20;50.90;;;;;;8369269;28;19920;-43
2022/11/11 22:01:10;;;;;;;;;;;17.20;50.90;;;;;;8368296;28;20011;-44
2022/11/11 22:05:10;;;;;;;;;;;17.20;50.80;;;;;;8368855;28;19921;-43
2022/11/11 22:09:11;;;;;;;;;;;17.10;50.80;;;;;;8367804;28;19928;-44
2022/11/11 22:13:11;;;;;;;;;;;17.20;50.90;;;;;;8368048;28;20272;-43
2022/11/11 22:17:12;;;;;;;;;;;17.20;50.90;;;;;;8368466;28;19921;-44
2022/11/11 22:21:18;;;;;;;;;;;17.20;50.80;;;;;;8367029;28;19925;-44
2022/11/11 22:25:18;;;;;;;;;;;17.20;50.90;;;;;;8368112;28;19924;-44
2022/11/11 22:29:18;;;;;;;;;;;17.20;50.90;;;;;;8367412;28;19920;-45
2022/11/11 22:33:19;;;;;;;;;;;17.20;50.80;;;;;;8367156;28;19917;-44
2022/11/11 22:37:20;;;;;;;;;;;17.20;50.80;;;;;;8367125;28;19921;-44
2022/11/11 22:41:22;;;;;;;;;;;17.10;50.80;;;;;;8367307;28;20436;-44
2022/11/11 22:45:22;;;;;;;;;;;17.20;50.80;;;;;;8366763;28;19923;-43
2022/11/11 22:49:23;;;;;;;;;;;17.20;50.90;;;;;;8366916;28;20369;-45
2022/11/11 22:53:23;;;;;;;;;;;17.20;50.80;;;;;;8367009;28;19917;-43
2022/11/11 22:57:29;;;;;;;;;;;17.20;50.80;;;;;;8366618;28;19913;-44
2022/11/11 23:01:30;;;;;;;;;;;17.20;50.80;;;;;;8365840;28;19916;-44
2022/11/11 23:05:31;;;;;;;;;;;17.20;50.80;;;;;;8374422;28;20247;-45
2022/11/11 23:09:34;;;;;;;;;;;17.20;50.80;;;;;;8365968;28;19931;-43
2022/11/11 23:13:35;;;;;;;;;;;17.20;50.80;;;;;;8366242;28;20011;-45
2022/11/11 23:17:36;;;;;;;;;;;17.20;50.80;;;;;;8366348;28;19995;-45
2022/11/11 23:21:37;;;;;;;;;;;17.20;50.80;;;;;;8364313;28;19924;-44
2022/11/11 23:25:37;;;;;;;;;;;17.20;50.90;;;;;;8365970;28;19916;-44
2022/11/11 23:29:38;;;;;;;;;;;17.10;50.80;;;;;;8365573;28;19925;-44
2022/11/11 23:33:39;;;;;;;;;;;17.10;50.80;;;;;;8365279;28;19917;-44
2022/11/11 23:37:40;;;;;;;;;;;17.10;50.80;;;;;;8365899;28;19913;-44
2022/11/11 23:41:40;;;;;;;;;;;17.10;50.80;;;;;;8365520;28;19921;-44
2022/11/11 23:45:40;;;;;;;;;;;17.10;50.80;;;;;;8364843;28;19959;-44
2022/11/11 23:49:41;;;;;;;;;;;17.10;50.80;;;;;;8364521;28;19928;-45
2022/11/11 23:53:41;;;;;;;;;;;17.10;50.80;;;;;;8365327;28;19917;-44
2022/11/11 23:57:42;;;;;;;;;;;17.10;50.80;;;;;;8364708;28;19913;-44
